sensor_id;sensor_type;location;lat;lon;timestamp;pressure;altitude;pressure_sealevel;temperature;humidity
61769;BME280;47669;48.712;9.016;2023-01-31T00:02:19;97459.69;;;0.61;nan
61769;BME280;47669;48.712;9.016;2023-01-31T00:04:44;97459.81;;;0.59;nan
61769;BME280;47669;48.712;9.016;2023-01-31T00:07:09;97456.53;;;0.47;nan
61769;BME280;47669;48.712;9.016;2023-01-31T00:09:35;97461.72;;;0.47;nan
61769;BME280;47669;48.712;9.016;2023-01-31T00:12:00;97445.72;;;0.42;nan
61769;BME280;47669;48.712;9.016;2023-01-31T00:14:25;97447.09;;;0.46;nan
61769;BME280;47669;48.712;9.016;2023-01-31T00:16:50;97439.84;;;0.30;nan
61769;BME280;47669;48.712;9.016;2023-01-31T00:19:16;97447.84;;;0.17;nan
61769;BME280;47669;48.712;9.016;2023-01-31T00:21:41;97450.63;;;-0.05;nan
61769;BME280;47669;48.712;9.016;2023-01-31T00:24:11;97440.47;;;0.13;nan
61769;BME280;47669;48.712;9.016;2023-01-31T00:26:37;97446.59;;;0.12;nan
61769;BME280;47669;48.712;9.016;2023-01-31T00:29:04;97443.81;;;0.04;nan
61769;BME280;47669;48.712;9.016;2023-01-31T00:31:32;97436.06;;;0.04;nan
61769;BME280;47669;48.712;9.016;2023-01-31T00:33:58;97444.19;;;0.20;nan
61769;BME280;47669;48.712;9.016;2023-01-31T00:36:32;97436.06;;;0.04;nan
61769;BME280;47669;48.712;9.016;2023-01-31T00:38:59;97435.28;;;0.13;nan
61769;BME280;47669;48.712;9.016;2023-01-31T00:41:28;97437.78;;;0.24;nan
61769;BME280;47669;48.712;9.016;2023-01-31T00:43:53;97436.09;;;0.13;nan
61769;BME280;47669;48.712;9.016;2023-01-31T00:46:19;97441.47;;;0.22;nan
61769;BME280;47669;48.712;9.016;2023-01-31T00:48:45;97433.25;;;0.16;nan
61769;BME280;47669;48.712;9.016;2023-01-31T00:51:10;97428.47;;;0.12;nan
61769;BME280;47669;48.712;9.016;2023-01-31T00:53:36;97432.81;;;0.11;nan
61769;BME280;47669;48.712;9.016;2023-01-31T00:56:10;97423.72;;;0.17;nan
61769;BME280;47669;48.712;9.016;2023-01-31T00:58:35;97414.72;;;0.21;nan
61769;BME280;47669;48.712;9.016;2023-01-31T01:03:38;97419.00;;;-0.09;nan
61769;BME280;47669;48.712;9.016;2023-01-31T01:06:04;97427.22;;;0.06;nan
61769;BME280;47669;48.712;9.016;2023-01-31T01:08:31;97415.06;;;-0.03;nan
61769;BME280;47669;48.712;9.016;2023-01-31T01:11:04;97415.22;;;0.05;nan
61769;BME280;47669;48.712;9.016;2023-01-31T01:13:29;97415.47;;;-0.08;nan
61769;BME280;47669;48.712;9.016;2023-01-31T01:15:54;97409.91;;;0.07;nan
61769;BME280;47669;48.712;9.016;2023-01-31T01:18:19;97415.22;;;0.05;nan
61769;BME280;47669;48.712;9.016;2023-01-31T01:20:45;97411.78;;;-0.05;nan
61769;BME280;47669;48.712;9.016;2023-01-31T01:23:10;97405.81;;;0.04;nan
61769;BME280;47669;48.712;9.016;2023-01-31T01:25:45;97414.81;;;0.00;nan
61769;BME280;47669;48.712;9.016;2023-01-31T01:28:10;97409.47;;;0.02;nan
61769;BME280;47669;48.712;9.016;2023-01-31T01:30:37;97419.44;;;-0.04;nan
61769;BME280;47669;48.712;9.016;2023-01-31T01:33:03;97412.03;;;-0.08;nan
61769;BME280;47669;48.712;9.016;2023-01-31T01:35:29;97415.59;;;-0.09;nan
61769;BME280;47669;48.712;9.016;2023-01-31T01:37:54;97408.34;;;-0.15;nan
61769;BME280;47669;48.712;9.016;2023-01-31T01:40:19;97404.22;;;-0.18;nan
61769;BME280;47669;48.712;9.016;2023-01-31T01:42:45;97406.91;;;-0.29;nan
61769;BME280;47669;48.712;9.016;2023-01-31T01:45:12;97424.09;;;0.03;nan
61769;BME280;47669;48.712;9.016;2023-01-31T01:50:12;97419.88;;;-0.20;nan
61769;BME280;47669;48.712;9.016;2023-01-31T01:53:02;97420.50;;;-0.37;nan
61769;BME280;47669;48.712;9.016;2023-01-31T01:55:37;97425.06;;;-0.50;nan
61769;BME280;47669;48.712;9.016;2023-01-31T01:58:13;97425.41;;;-0.34;nan
61769;BME280;47669;48.712;9.016;2023-01-31T02:00:40;97422.97;;;-0.56;nan
61769;BME280;47669;48.712;9.016;2023-01-31T02:03:07;97428.84;;;-0.75;nan
61769;BME280;47669;48.712;9.016;2023-01-31T02:05:43;97426.44;;;-0.67;nan
61769;BME280;47669;48.712;9.016;2023-01-31T02:08:11;97418.00;;;-0.69;nan
61769;BME280;47669;48.712;9.016;2023-01-31T02:10:54;97424.91;;;-0.49;nan
61769;BME280;47669;48.712;9.016;2023-01-31T02:13:21;97421.38;;;-0.27;nan
61769;BME280;47669;48.712;9.016;2023-01-31T02:15:47;97429.84;;;-0.46;nan
61769;BME280;47669;48.712;9.016;2023-01-31T02:18:13;97425.47;;;-0.45;nan
61769;BME280;47669;48.712;9.016;2023-01-31T02:20:55;97435.84;;;-0.87;nan
61769;BME280;47669;48.712;9.016;2023-01-31T02:38:03;97450.97;;;-1.15;nan
61769;BME280;47669;48.712;9.016;2023-01-31T02:40:48;97450.59;;;-0.99;nan
61769;BME280;47669;48.712;9.016;2023-01-31T02:46:57;97460.63;;;-1.17;nan
61769;BME280;47669;48.712;9.016;2023-01-31T02:49:51;97458.19;;;-1.18;nan
61769;BME280;47669;48.712;9.016;2023-01-31T02:52:24;97468.53;;;-1.18;nan
61769;BME280;47669;48.712;9.016;2023-01-31T02:54:59;97471.56;;;-1.25;nan
61769;BME280;47669;48.712;9.016;2023-01-31T02:57:46;97478.06;;;-1.30;nan
61769;BME280;47669;48.712;9.016;2023-01-31T03:00:13;97478.91;;;-1.41;nan
61769;BME280;47669;48.712;9.016;2023-01-31T03:02:39;97471.63;;;-1.36;nan
61769;BME280;47669;48.712;9.016;2023-01-31T03:05:05;97474.13;;;-1.13;nan
61769;BME280;47669;48.712;9.016;2023-01-31T03:07:34;97471.41;;;-1.01;nan
61769;BME280;47669;48.712;9.016;2023-01-31T03:12:52;97459.34;;;-1.23;nan
61769;BME280;47669;48.712;9.016;2023-01-31T03:15:52;97472.34;;;-1.13;nan
61769;BME280;47669;48.712;9.016;2023-01-31T03:19:10;97465.31;;;-1.11;nan
61769;BME280;47669;48.712;9.016;2023-01-31T03:21:56;97462.56;;;-1.30;nan
61769;BME280;47669;48.712;9.016;2023-01-31T03:24:24;97472.31;;;-1.34;nan
61769;BME280;47669;48.712;9.016;2023-01-31T03:26:52;97471.84;;;-1.28;nan
61769;BME280;47669;48.712;9.016;2023-01-31T03:29:19;97467.81;;;-1.21;nan
61769;BME280;47669;48.712;9.016;2023-01-31T03:31:48;97474.25;;;-1.15;nan
61769;BME280;47669;48.712;9.016;2023-01-31T03:34:18;97473.72;;;-1.30;nan
61769;BME280;47669;48.712;9.016;2023-01-31T03:40:04;97468.66;;;-1.31;nan
61769;BME280;47669;48.712;9.016;2023-01-31T03:43:07;97478.91;;;-1.52;nan
61769;BME280;47669;48.712;9.016;2023-01-31T03:45:44;97476.38;;;-1.75;nan
61769;BME280;47669;48.712;9.016;2023-01-31T03:48:12;97484.00;;;-1.85;nan
61769;BME280;47669;48.712;9.016;2023-01-31T03:50:47;97493.75;;;-1.88;nan
61769;BME280;47669;48.712;9.016;2023-01-31T03:53:20;97490.00;;;-1.84;nan
61769;BME280;47669;48.712;9.016;2023-01-31T03:55:52;97484.34;;;-1.78;nan
61769;BME280;47669;48.712;9.016;2023-01-31T03:58:23;97486.13;;;-1.79;nan
61769;BME280;47669;48.712;9.016;2023-01-31T04:00:51;97493.03;;;-1.79;nan
61769;BME280;47669;48.712;9.016;2023-01-31T04:03:26;97491.50;;;-1.82;nan
61769;BME280;47669;48.712;9.016;2023-01-31T04:05:53;97494.91;;;-1.81;nan
61769;BME280;47669;48.712;9.016;2023-01-31T04:08:19;97504.06;;;-1.88;nan
61769;BME280;47669;48.712;9.016;2023-01-31T04:10:45;97500.88;;;-2.14;nan
61769;BME280;47669;48.712;9.016;2023-01-31T04:13:10;97507.34;;;-2.09;nan
61769;BME280;47669;48.712;9.016;2023-01-31T04:15:35;97507.94;;;-1.71;nan
61769;BME280;47669;48.712;9.016;2023-01-31T04:18:01;97497.47;;;-1.81;nan
61769;BME280;47669;48.712;9.016;2023-01-31T04:20:26;97498.22;;;-1.90;nan
61769;BME280;47669;48.712;9.016;2023-01-31T04:22:51;97507.69;;;-1.80;nan
61769;BME280;47669;48.712;9.016;2023-01-31T04:25:16;97506.06;;;-1.92;nan
61769;BME280;47669;48.712;9.016;2023-01-31T04:27:42;97505.47;;;-2.07;nan
61769;BME280;47669;48.712;9.016;2023-01-31T04:30:07;97504.06;;;-2.00;nan
61769;BME280;47669;48.712;9.016;2023-01-31T04:32:33;97494.66;;;-2.23;nan
61769;BME280;47669;48.712;9.016;2023-01-31T04:34:58;97496.63;;;-2.38;nan
61769;BME280;47669;48.712;9.016;2023-01-31T04:37:23;97508.25;;;-2.21;nan
61769;BME280;47669;48.712;9.016;2023-01-31T04:39:49;97512.09;;;-2.38;nan
61769;BME280;47669;48.712;9.016;2023-01-31T04:42:14;97516.78;;;-2.43;nan
61769;BME280;47669;48.712;9.016;2023-01-31T04:44:39;97513.03;;;-2.39;nan
61769;BME280;47669;48.712;9.016;2023-01-31T04:47:04;97510.47;;;-2.39;nan
61769;BME280;47669;48.712;9.016;2023-01-31T04:49:30;97511.78;;;-2.22;nan
61769;BME280;47669;48.712;9.016;2023-01-31T04:51:55;97510.34;;;-2.26;nan
61769;BME280;47669;48.712;9.016;2023-01-31T04:54:20;97513.13;;;-2.52;nan
61769;BME280;47669;48.712;9.016;2023-01-31T04:56:45;97512.75;;;-2.47;nan
61769;BME280;47669;48.712;9.016;2023-01-31T04:59:11;97516.19;;;-2.47;nan
61769;BME280;47669;48.712;9.016;2023-01-31T05:01:36;97516.50;;;-2.51;nan
61769;BME280;47669;48.712;9.016;2023-01-31T05:04:01;97503.59;;;-2.63;nan
61769;BME280;47669;48.712;9.016;2023-01-31T05:06:26;97503.25;;;-2.58;nan
61769;BME280;47669;48.712;9.016;2023-01-31T05:08:52;97499.72;;;-2.57;nan
61769;BME280;47669;48.712;9.016;2023-01-31T05:11:18;97496.72;;;-2.51;nan
61769;BME280;47669;48.712;9.016;2023-01-31T05:13:44;97502.31;;;-2.57;nan
61769;BME280;47669;48.712;9.016;2023-01-31T05:16:10;97503.41;;;-2.48;nan
61769;BME280;47669;48.712;9.016;2023-01-31T05:18:36;97508.44;;;-2.47;nan
61769;BME280;47669;48.712;9.016;2023-01-31T05:21:03;97507.72;;;-2.60;nan
61769;BME280;47669;48.712;9.016;2023-01-31T05:23:30;97506.28;;;-2.64;nan
61769;BME280;47669;48.712;9.016;2023-01-31T05:25:55;97507.22;;;-2.65;nan
61769;BME280;47669;48.712;9.016;2023-01-31T05:28:21;97514.69;;;-2.73;nan
61769;BME280;47669;48.712;9.016;2023-01-31T05:30:46;97522.94;;;-2.57;nan
61769;BME280;47669;48.712;9.016;2023-01-31T05:33:12;97517.63;;;-2.67;nan
61769;BME280;47669;48.712;9.016;2023-01-31T05:35:37;97530.31;;;-2.64;nan
61769;BME280;47669;48.712;9.016;2023-01-31T05:38:03;97526.34;;;-2.56;nan
61769;BME280;47669;48.712;9.016;2023-01-31T05:40:28;97515.41;;;-2.71;nan
61769;BME280;47669;48.712;9.016;2023-01-31T05:42:55;97521.00;;;-2.78;nan
61769;BME280;47669;48.712;9.016;2023-01-31T05:45:21;97521.88;;;-2.66;nan
61769;BME280;47669;48.712;9.016;2023-01-31T05:47:47;97525.94;;;-2.39;nan
61769;BME280;47669;48.712;9.016;2023-01-31T05:50:12;97518.59;;;-2.68;nan
61769;BME280;47669;48.712;9.016;2023-01-31T05:52:38;97518.47;;;-2.66;nan
61769;BME280;47669;48.712;9.016;2023-01-31T05:55:04;97518.34;;;-2.65;nan
61769;BME280;47669;48.712;9.016;2023-01-31T05:57:29;97511.09;;;-2.60;nan
61769;BME280;47669;48.712;9.016;2023-01-31T05:59:54;97513.88;;;-2.74;nan
61769;BME280;47669;48.712;9.016;2023-01-31T06:02:20;97521.03;;;-2.31;nan
61769;BME280;47669;48.712;9.016;2023-01-31T06:04:45;97521.09;;;-2.79;nan
61769;BME280;47669;48.712;9.016;2023-01-31T06:07:11;97518.59;;;-2.68;nan
61769;BME280;47669;48.712;9.016;2023-01-31T06:09:37;97522.09;;;-2.93;nan
61769;BME280;47669;48.712;9.016;2023-01-31T06:12:04;97523.16;;;-2.95;nan
61769;BME280;47669;48.712;9.016;2023-01-31T06:14:30;97528.19;;;-2.94;nan
61769;BME280;47669;48.712;9.016;2023-01-31T06:16:56;97527.63;;;-2.86;nan
61769;BME280;47669;48.712;9.016;2023-01-31T06:19:21;97518.66;;;-3.05;nan
61769;BME280;47669;48.712;9.016;2023-01-31T06:21:49;97530.22;;;-3.10;nan
61769;BME280;47669;48.712;9.016;2023-01-31T06:24:15;97528.19;;;-2.94;nan
61769;BME280;47669;48.712;9.016;2023-01-31T06:26:40;97531.28;;;-3.13;nan
61769;BME280;47669;48.712;9.016;2023-01-31T06:29:07;97535.09;;;-3.19;nan
61769;BME280;47669;48.712;9.016;2023-01-31T06:31:33;97537.31;;;-3.01;nan
61769;BME280;47669;48.712;9.016;2023-01-31T06:33:58;97536.78;;;-3.06;nan
61769;BME280;47669;48.712;9.016;2023-01-31T06:36:23;97542.41;;;-3.12;nan
61769;BME280;47669;48.712;9.016;2023-01-31T06:38:50;97541.34;;;-3.10;nan
61769;BME280;47669;48.712;9.016;2023-01-31T06:41:16;97527.38;;;-2.94;nan
61769;BME280;47669;48.712;9.016;2023-01-31T06:43:42;97531.50;;;-3.29;nan
61769;BME280;47669;48.712;9.016;2023-01-31T06:46:07;97541.16;;;-3.20;nan
61769;BME280;47669;48.712;9.016;2023-01-31T06:48:32;97550.22;;;-3.14;nan
61769;BME280;47669;48.712;9.016;2023-01-31T06:50:58;97547.47;;;-3.24;nan
61769;BME280;47669;48.712;9.016;2023-01-31T06:53:23;97559.00;;;-3.17;nan
61769;BME280;47669;48.712;9.016;2023-01-31T06:55:48;97550.13;;;-3.12;nan
61769;BME280;47669;48.712;9.016;2023-01-31T06:58:13;97551.88;;;-3.13;nan
61769;BME280;47669;48.712;9.016;2023-01-31T07:00:39;97548.28;;;-3.23;nan
61769;BME280;47669;48.712;9.016;2023-01-31T07:03:04;97545.31;;;-2.93;nan
61769;BME280;47669;48.712;9.016;2023-01-31T07:05:29;97528.53;;;-3.23;nan
61769;BME280;47669;48.712;9.016;2023-01-31T07:07:54;97535.09;;;-3.19;nan
61769;BME280;47669;48.712;9.016;2023-01-31T07:10:21;97534.56;;;-2.87;nan
61769;BME280;47669;48.712;9.016;2023-01-31T07:12:46;97533.53;;;-3.21;nan
61769;BME280;47669;48.712;9.016;2023-01-31T07:15:11;97539.81;;;-3.12;nan
61769;BME280;47669;48.712;9.016;2023-01-31T07:17:36;97535.34;;;-2.98;nan
61769;BME280;47669;48.712;9.016;2023-01-31T07:20:02;97535.34;;;-2.98;nan
61769;BME280;47669;48.712;9.016;2023-01-31T07:22:27;97536.19;;;-3.10;nan
61769;BME280;47669;48.712;9.016;2023-01-31T07:24:52;97536.75;;;-2.93;nan
61769;BME280;47669;48.712;9.016;2023-01-31T07:27:18;97543.09;;;-2.86;nan
61769;BME280;47669;48.712;9.016;2023-01-31T07:29:43;97545.69;;;-2.62;nan
61769;BME280;47669;48.712;9.016;2023-01-31T07:32:09;97542.75;;;-2.58;nan
61769;BME280;47669;48.712;9.016;2023-01-31T07:34:34;97540.31;;;-2.48;nan
61769;BME280;47669;48.712;9.016;2023-01-31T07:37:00;97543.75;;;-2.36;nan
61769;BME280;47669;48.712;9.016;2023-01-31T07:39:26;97552.19;;;-1.76;nan
61769;BME280;47669;48.712;9.016;2023-01-31T07:41:51;97553.72;;;-1.51;nan
61769;BME280;47669;48.712;9.016;2023-01-31T07:44:17;97548.06;;;-1.56;nan
61769;BME280;47669;48.712;9.016;2023-01-31T07:46:42;97553.94;;;-1.54;nan
61769;BME280;47669;48.712;9.016;2023-01-31T07:49:10;97557.31;;;-1.20;nan
61769;BME280;47669;48.712;9.016;2023-01-31T07:51:36;97550.47;;;-1.09;nan
61769;BME280;47669;48.712;9.016;2023-01-31T07:54:04;97545.09;;;-1.06;nan
61769;BME280;47669;48.712;9.016;2023-01-31T07:56:30;97545.75;;;-0.93;nan
61769;BME280;47669;48.712;9.016;2023-01-31T07:58:55;97544.31;;;-0.86;nan
61769;BME280;47669;48.712;9.016;2023-01-31T08:01:23;97554.53;;;-0.84;nan
61769;BME280;47669;48.712;9.016;2023-01-31T08:04:09;97544.03;;;-0.71;nan
61769;BME280;47669;48.712;9.016;2023-01-31T08:06:35;97542.06;;;-0.79;nan
61769;BME280;47669;48.712;9.016;2023-01-31T08:09:01;97546.09;;;-0.54;nan
61769;BME280;47669;48.712;9.016;2023-01-31T08:11:27;97544.25;;;-0.63;nan
61769;BME280;47669;48.712;9.016;2023-01-31T08:13:52;97547.03;;;-0.55;nan
61769;BME280;47669;48.712;9.016;2023-01-31T08:16:17;97539.63;;;-0.27;nan
61769;BME280;47669;48.712;9.016;2023-01-31T08:18:44;97543.44;;;-0.22;nan
61769;BME280;47669;48.712;9.016;2023-01-31T08:21:11;97545.66;;;-0.17;nan
61769;BME280;47669;48.712;9.016;2023-01-31T08:23:36;97541.75;;;-0.11;nan
61769;BME280;47669;48.712;9.016;2023-01-31T08:26:10;97531.69;;;0.16;nan
61769;BME280;47669;48.712;9.016;2023-01-31T08:28:36;97533.34;;;0.27;nan
61769;BME280;47669;48.712;9.016;2023-01-31T08:31:02;97535.03;;;0.38;nan
61769;BME280;47669;48.712;9.016;2023-01-31T08:33:28;97522.75;;;0.71;nan
61769;BME280;47669;48.712;9.016;2023-01-31T08:35:53;97528.66;;;0.92;nan
61769;BME280;47669;48.712;9.016;2023-01-31T08:38:18;97512.00;;;0.95;nan
61769;BME280;47669;48.712;9.016;2023-01-31T08:40:44;97521.78;;;0.82;nan
61769;BME280;47669;48.712;9.016;2023-01-31T08:43:10;97519.19;;;0.72;nan
61769;BME280;47669;48.712;9.016;2023-01-31T08:45:35;97517.06;;;0.96;nan
61769;BME280;47669;48.712;9.016;2023-01-31T08:48:01;97505.59;;;1.38;nan
61769;BME280;47669;48.712;9.016;2023-01-31T08:50:29;97497.56;;;1.31;nan
61769;BME280;47669;48.712;9.016;2023-01-31T08:53:01;97501.25;;;1.00;nan
61769;BME280;47669;48.712;9.016;2023-01-31T08:55:28;97491.09;;;1.74;nan
61769;BME280;47669;48.712;9.016;2023-01-31T08:57:53;97478.03;;;1.37;nan
61769;BME280;47669;48.712;9.016;2023-01-31T09:00:20;97479.78;;;2.13;nan
61769;BME280;47669;48.712;9.016;2023-01-31T09:02:57;97470.84;;;1.88;nan
61769;BME280;47669;48.712;9.016;2023-01-31T09:05:27;97479.03;;;1.93;nan
61769;BME280;47669;48.712;9.016;2023-01-31T09:07:53;97482.91;;;1.69;nan
61769;BME280;47669;48.712;9.016;2023-01-31T09:10:19;97484.69;;;1.59;nan
61769;BME280;47669;48.712;9.016;2023-01-31T09:12:45;97486.75;;;1.55;nan
61769;BME280;47669;48.712;9.016;2023-01-31T09:15:11;97491.41;;;1.62;nan
61769;BME280;47669;48.712;9.016;2023-01-31T09:17:37;97482.66;;;2.10;nan
61769;BME280;47669;48.712;9.016;2023-01-31T09:20:03;97492.03;;;1.93;nan
61769;BME280;47669;48.712;9.016;2023-01-31T09:22:32;97487.69;;;1.74;nan
61769;BME280;47669;48.712;9.016;2023-01-31T09:24:58;97485.88;;;1.84;nan
61769;BME280;47669;48.712;9.016;2023-01-31T09:27:23;97488.81;;;1.62;nan
61769;BME280;47669;48.712;9.016;2023-01-31T09:29:48;97478.66;;;1.68;nan
61769;BME280;47669;48.712;9.016;2023-01-31T09:32:14;97476.28;;;1.85;nan
61769;BME280;47669;48.712;9.016;2023-01-31T09:34:39;97478.06;;;1.94;nan
61769;BME280;47669;48.712;9.016;2023-01-31T09:37:04;97478.97;;;2.12;nan
61769;BME280;47669;48.712;9.016;2023-01-31T09:39:29;97477.38;;;1.92;nan
61769;BME280;47669;48.712;9.016;2023-01-31T09:42:20;97476.97;;;2.34;nan
61769;BME280;47669;48.712;9.016;2023-01-31T09:45:06;97464.72;;;2.16;nan
61769;BME280;47669;48.712;9.016;2023-01-31T09:47:38;97460.66;;;2.04;nan
61769;BME280;47669;48.712;9.016;2023-01-31T09:50:20;97471.47;;;2.00;nan
61769;BME280;47669;48.712;9.016;2023-01-31T09:52:47;97470.78;;;2.07;nan
61769;BME280;47669;48.712;9.016;2023-01-31T09:55:38;97464.69;;;1.89;nan
61769;BME280;47669;48.712;9.016;2023-01-31T09:58:13;97455.41;;;1.76;nan
61769;BME280;47669;48.712;9.016;2023-01-31T10:00:53;97461.31;;;2.16;nan
61769;BME280;47669;48.712;9.016;2023-01-31T10:06:14;97472.84;;;2.04;nan
61769;BME280;47669;48.712;9.016;2023-01-31T10:08:48;97471.97;;;2.13;nan
61769;BME280;47669;48.712;9.016;2023-01-31T10:11:55;97480.44;;;2.15;nan
61769;BME280;47669;48.712;9.016;2023-01-31T10:14:41;97482.47;;;2.21;nan
61769;BME280;47669;48.712;9.016;2023-01-31T10:20:00;97482.69;;;2.38;nan
61769;BME280;47669;48.712;9.016;2023-01-31T10:22:37;97487.09;;;2.27;nan
61769;BME280;47669;48.712;9.016;2023-01-31T10:25:29;97486.19;;;2.19;nan
61769;BME280;47669;48.712;9.016;2023-01-31T10:28:00;97485.78;;;2.13;nan
61769;BME280;47669;48.712;9.016;2023-01-31T10:30:39;97477.63;;;2.36;nan
61769;BME280;47669;48.712;9.016;2023-01-31T10:33:32;97473.09;;;2.38;nan
61769;BME280;47669;48.712;9.016;2023-01-31T10:36:04;97467.56;;;3.14;nan
61769;BME280;47669;48.712;9.016;2023-01-31T10:38:36;97465.28;;;3.11;nan
61769;BME280;47669;48.712;9.016;2023-01-31T10:41:12;97460.13;;;3.38;nan
61769;BME280;47669;48.712;9.016;2023-01-31T10:43:55;97465.91;;;2.78;nan
61769;BME280;47669;48.712;9.016;2023-01-31T10:46:21;97466.66;;;2.88;nan
61769;BME280;47669;48.712;9.016;2023-01-31T10:48:47;97467.72;;;2.95;nan
61769;BME280;47669;48.712;9.016;2023-01-31T10:51:23;97452.09;;;2.95;nan
61769;BME280;47669;48.712;9.016;2023-01-31T10:54:09;97455.66;;;3.30;nan
61769;BME280;47669;48.712;9.016;2023-01-31T10:56:45;97453.00;;;3.22;nan
61769;BME280;47669;48.712;9.016;2023-01-31T11:01:59;97454.13;;;3.19;nan
61769;BME280;47669;48.712;9.016;2023-01-31T11:04:37;97443.44;;;3.30;nan
61769;BME280;47669;48.712;9.016;2023-01-31T11:07:04;97440.72;;;3.14;nan
61769;BME280;47669;48.712;9.016;2023-01-31T11:09:33;97448.53;;;3.14;nan
61769;BME280;47669;48.712;9.016;2023-01-31T11:12:01;97439.06;;;3.49;nan
61769;BME280;47669;48.712;9.016;2023-01-31T11:14:28;97434.16;;;3.72;nan
61769;BME280;47669;48.712;9.016;2023-01-31T11:17:03;97436.69;;;3.64;nan
61769;BME280;47669;48.712;9.016;2023-01-31T11:19:47;97441.38;;;3.34;nan
61769;BME280;47669;48.712;9.016;2023-01-31T11:25:18;97440.81;;;3.04;nan
61769;BME280;47669;48.712;9.016;2023-01-31T11:27:46;97424.84;;;3.43;nan
61769;BME280;47669;48.712;9.016;2023-01-31T11:30:33;97412.81;;;4.45;nan
61769;BME280;47669;48.712;9.016;2023-01-31T11:33:00;97404.16;;;3.94;nan
61769;BME280;47669;48.712;9.016;2023-01-31T11:35:31;97394.91;;;4.00;nan
61769;BME280;47669;48.712;9.016;2023-01-31T11:38:02;97390.28;;;3.59;nan
61769;BME280;47669;48.712;9.016;2023-01-31T11:40:41;97379.69;;;3.52;nan
61769;BME280;47669;48.712;9.016;2023-01-31T11:45:42;97364.09;;;3.95;nan
61769;BME280;47669;48.712;9.016;2023-01-31T11:48:16;97354.03;;;4.84;nan
61769;BME280;47669;48.712;9.016;2023-01-31T11:50:44;97355.47;;;4.03;nan
61769;BME280;47669;48.712;9.016;2023-01-31T11:53:25;97357.56;;;3.30;nan
61769;BME280;47669;48.712;9.016;2023-01-31T11:55:54;97345.59;;;3.46;nan
61769;BME280;47669;48.712;9.016;2023-01-31T11:58:25;97353.78;;;3.25;nan
61769;BME280;47669;48.712;9.016;2023-01-31T12:01:07;97367.25;;;3.20;nan
61769;BME280;47669;48.712;9.016;2023-01-31T12:03:36;97388.78;;;3.04;nan
61769;BME280;47669;48.712;9.016;2023-01-31T12:06:07;97388.44;;;3.07;nan
61769;BME280;47669;48.712;9.016;2023-01-31T12:08:36;97388.25;;;3.01;nan
61769;BME280;47669;48.712;9.016;2023-01-31T12:11:04;97381.28;;;2.83;nan
61769;BME280;47669;48.712;9.016;2023-01-31T12:13:29;97373.50;;;3.09;nan
61769;BME280;47669;48.712;9.016;2023-01-31T12:16:00;97381.19;;;2.75;nan
61769;BME280;47669;48.712;9.016;2023-01-31T12:26:54;97365.81;;;2.82;nan
61769;BME280;47669;48.712;9.016;2023-01-31T12:32:30;97340.94;;;3.05;nan
61769;BME280;47669;48.712;9.016;2023-01-31T12:35:14;97335.34;;;2.56;nan
61769;BME280;47669;48.712;9.016;2023-01-31T12:44:06;97305.44;;;2.34;nan
61769;BME280;47669;48.712;9.016;2023-01-31T12:49:42;97315.97;;;2.14;nan
61769;BME280;47669;48.712;9.016;2023-01-31T12:52:21;97311.22;;;2.28;nan
61769;BME280;47669;48.712;9.016;2023-01-31T13:00:33;97320.56;;;2.21;nan
61769;BME280;47669;48.712;9.016;2023-01-31T13:03:08;97312.22;;;1.99;nan
61769;BME280;47669;48.712;9.016;2023-01-31T13:05:44;97307.38;;;2.04;nan
61769;BME280;47669;48.712;9.016;2023-01-31T13:08:17;97290.50;;;2.18;nan
61769;BME280;47669;48.712;9.016;2023-01-31T13:10:46;97282.47;;;2.11;nan
61769;BME280;47669;48.712;9.016;2023-01-31T13:13:37;97292.66;;;2.23;nan
61769;BME280;47669;48.712;9.016;2023-01-31T13:16:17;97292.13;;;2.19;nan
61769;BME280;47669;48.712;9.016;2023-01-31T13:18:48;97285.72;;;2.13;nan
61769;BME280;47669;48.712;9.016;2023-01-31T13:21:19;97277.13;;;2.31;nan
61769;BME280;47669;48.712;9.016;2023-01-31T13:24:26;97288.25;;;2.23;nan
61769;BME280;47669;48.712;9.016;2023-01-31T13:26:58;97280.66;;;2.12;nan
61769;BME280;47669;48.712;9.016;2023-01-31T13:29:38;97285.44;;;2.16;nan
61769;BME280;47669;48.712;9.016;2023-01-31T13:32:17;97276.88;;;2.06;nan
61769;BME280;47669;48.712;9.016;2023-01-31T13:34:51;97273.06;;;2.28;nan
61769;BME280;47669;48.712;9.016;2023-01-31T13:37:17;97274.47;;;2.23;nan
61769;BME280;47669;48.712;9.016;2023-01-31T13:39:58;97277.13;;;2.13;nan
61769;BME280;47669;48.712;9.016;2023-01-31T13:42:24;97270.81;;;2.33;nan
61769;BME280;47669;48.712;9.016;2023-01-31T13:44:51;97268.44;;;2.22;nan
61769;BME280;47669;48.712;9.016;2023-01-31T13:47:21;97270.81;;;2.15;nan
61769;BME280;47669;48.712;9.016;2023-01-31T13:50:01;97275.78;;;2.27;nan
61769;BME280;47669;48.712;9.016;2023-01-31T13:52:44;97269.34;;;2.13;nan
61769;BME280;47669;48.712;9.016;2023-01-31T13:55:19;97272.00;;;2.21;nan
61769;BME280;47669;48.712;9.016;2023-01-31T13:57:56;97267.13;;;2.36;nan
61769;BME280;47669;48.712;9.016;2023-01-31T14:00:40;97275.72;;;2.36;nan
61769;BME280;47669;48.712;9.016;2023-01-31T14:03:15;97268.53;;;2.30;nan
61769;BME280;47669;48.712;9.016;2023-01-31T14:08:55;97263.31;;;2.12;nan
61769;BME280;47669;48.712;9.016;2023-01-31T14:14:09;97274.38;;;2.32;nan
61769;BME280;47669;48.712;9.016;2023-01-31T14:19:04;97264.66;;;1.99;nan
61769;BME280;47669;48.712;9.016;2023-01-31T14:27:19;97231.75;;;2.25;nan
61769;BME280;47669;48.712;9.016;2023-01-31T14:29:47;97244.00;;;2.15;nan
61769;BME280;47669;48.712;9.016;2023-01-31T14:32:44;97241.25;;;2.34;nan
61769;BME280;47669;48.712;9.016;2023-01-31T14:40:23;97254.28;;;2.61;nan
61769;BME280;47669;48.712;9.016;2023-01-31T14:43:07;97239.75;;;2.50;nan
61769;BME280;47669;48.712;9.016;2023-01-31T14:45:39;97246.53;;;2.87;nan
61769;BME280;47669;48.712;9.016;2023-01-31T14:51:00;97235.53;;;2.49;nan
61769;BME280;47669;48.712;9.016;2023-01-31T14:54:00;97227.81;;;2.39;nan
61769;BME280;47669;48.712;9.016;2023-01-31T14:57:09;97239.53;;;2.43;nan
61769;BME280;47669;48.712;9.016;2023-01-31T15:05:45;97236.34;;;2.31;nan
61769;BME280;47669;48.712;9.016;2023-01-31T15:10:58;97223.00;;;2.26;nan
61769;BME280;47669;48.712;9.016;2023-01-31T15:13:38;97223.75;;;2.36;nan
61769;BME280;47669;48.712;9.016;2023-01-31T15:16:25;97226.28;;;2.28;nan
61769;BME280;47669;48.712;9.016;2023-01-31T15:19:00;97239.13;;;2.30;nan
61769;BME280;47669;48.712;9.016;2023-01-31T15:21:36;97238.81;;;2.33;nan
61769;BME280;47669;48.712;9.016;2023-01-31T15:24:05;97250.53;;;2.37;nan
61769;BME280;47669;48.712;9.016;2023-01-31T15:26:32;97256.84;;;2.34;nan